Cochrane, Alabama
Current Conditions -  °F | °C
As of 12:53 PM on Saturday 25 Oct 2014 (Local Time) from KTCL Reporting Station
Clear Clear  
Wind Chill: 75°   Ceiling: Unl
Heat Index: 75°   Visibility: 10mi
Dew Point: 56°   Wind: 5mph
Humidity: 51%   Direction: 280°W
Pressure: 30.1"   Gusts: NA
Location:  33.1204°N, 88.1617°W
Report Text: KTCL 251753Z 28004KT 10SM CLR 24/13 A3010 RMK AO2 SLP190 T02390133 10244 20072 58014
Loading
Personal Weather Stations






























Interactive Weather Map
Tropical Storm Tracking
New forecast layout! Learn more

10-Day Weather Forecast

Advertisements
Track Severe Weather on mobile